Airfield :
LOGIN :

Register | Disclaimer

   EN    FR    IT 

 










Legend :    VFR   Marginal VFR   IFR   Intensive IFR   Very Intensive IFR
Visi :
Ceiling :
>= 8 km
>= 3000ft
5 to 8 km
1000 to 3000 ft
1500m to 5 km
500 to 1000 ft
800 to 1500m
200 to 500 ft
< 800m
< 200 ft
Symbols :   Thunderstorms  Fog  Heavy snow  Heavy precipitations  Wind > 20 kt
SIGMETs :     Misc.  Thunderstorms  Icing  Turbulence  Mountain Waves  Volcanic Ashes







- Airport Elevation : 290 ft
- IATA code : LAI
- Download approach charts


LFRO - Lannion

CURRENT METAR :
  • 260200Z AUTO 17003KT 9999 FEW043 07/06 Q1007

EXPIRED METARs :
  • 260130Z AUTO 18005KT 9999 BKN045 BKN240 07/06 Q1007
  • 260100Z AUTO 16004KT 9999 FEW038 BKN048 07/06 Q1006
  • 260030Z AUTO 16005KT 9999 SCT046 07/06 Q1006
  • 260000Z AUTO 18004KT 9999 OVC048 07/06 Q1006
  • 252330Z AUTO 16004KT 9999 BKN046 07/06 Q1006

Expired Forecast.
No reported NOTAMs for that airfield.
2 SIGMETs reported for the Brest FIR (LFRR) :
 
Embedded thunderstorms
LFRR SIGMET 4 VALID 260100/260230 LFPW
LFRR BREST FIR/UIR EMBD TS FCST WI N4545 W00145 - N4330 W00145 - N4345 W00300 - N4545 W00230 - N4545 W00145 TOP FL270 STNR NC=
Embedded thunderstorms
LFRR SIGMET 1 VALID 260045/260230 LFPW
LFRR BREST FIR/UIR EMBD TS FCST WI N4630 W00030 - N4630 W00130 - N4615 W00130 - N4615 W00200 - N4645 W00100 - N4630 W00030 TOP FL270 MOV NE 30KT NC=



MET'MAP, your aeronautical weather chart ! - Copyright ORBIFLY December 2007 - Disclaimer

ORBIFLY MET'MAP TEAM :

Programming & Development : Alexandra Zaïnal
Concept & Development : Baudouin d'Aumeries
Co-Development & Prog : Marc-Olivier Méhu
Technical & hardware support : Manuel Goepfert

Contact : metmap@orbifly.com




SOURCES & CREDITS :

   NOAA